Time;durP1;ratioP1;P1;durP2;ratioP2;P2;SDS_P1;SDS_P2;PMS_P1;PMS_P2;Temp;Humidity;BMP_temperature;BMP_pressure;BME280_temperature;BME280_humidity;BME280_pressure;Samples;Min_cycle;Max_cycle;Signal;HPM_P1;HPM_P2
2022/11/15 00:02:13;;;;;;;4.35;1.30;;;18.60;69.80;;;;;;6267938;22;20240;-84
2022/11/15 00:04:46;;;;;;;3.25;1.30;;;18.60;69.80;;;;;;6294127;22;20147;-84
2022/11/15 00:07:21;;;;;;;4.22;1.00;;;18.60;69.80;;;;;;6293932;22;20151;-84
2022/11/15 00:09:50;;;;;;;6.35;1.30;;;18.60;69.80;;;;;;6270219;22;20151;-84
2022/11/15 00:12:34;;;;;;;5.53;1.45;;;18.50;70.60;;;;;;6320629;22;20179;-84
2022/11/15 00:15:05;;;;;;;4.88;1.30;;;18.60;69.80;;;;;;6273591;22;20148;-84
2022/11/15 00:17:35;;;;;;;3.33;1.35;;;18.60;70.50;;;;;;6322250;22;20132;-83
2022/11/15 00:20:09;;;;;;;4.75;1.30;;;18.60;69.70;;;;;;6269385;22;20211;-85
2022/11/15 00:22:35;;;;;;;4.90;1.20;;;18.60;69.80;;;;;;6244062;22;20162;-84
2022/11/15 00:25:06;;;;;;;2.83;1.17;;;18.60;69.80;;;;;;6295785;22;20144;-86
2022/11/15 00:27:40;;;;;;;5.22;1.13;;;18.60;69.80;;;;;;6269878;22;20594;-84
2022/11/15 00:30:08;;;;;;;5.43;1.58;;;18.60;69.70;;;;;;6155596;23;20203;-84
2022/11/15 00:32:34;;;;;;;5.45;1.30;;;18.60;69.90;;;;;;6165411;23;20238;-84
2022/11/15 00:35:05;;;;;;;4.18;1.30;;;18.60;69.80;;;;;;6233880;23;20164;-84
2022/11/15 00:37:36;;;;;;;3.50;1.13;;;18.50;69.70;;;;;;6105690;23;20241;-84
2022/11/15 00:40:03;;;;;;;3.92;1.17;;;18.50;69.80;;;;;;6183504;23;20154;-85
2022/11/15 00:42:36;;;;;;;1.80;1.02;;;18.60;69.70;;;;;;6233930;23;20164;-84
2022/11/15 00:45:07;;;;;;;4.40;1.52;;;18.60;69.70;;;;;;6106658;23;20149;-86
2022/11/15 00:47:35;;;;;;;3.55;1.42;;;18.60;69.70;;;;;;6206990;23;20221;-85
2022/11/15 00:50:12;;;;;;;3.63;1.02;;;18.60;69.80;;;;;;6257898;23;20169;-85
2022/11/15 00:52:59;;;;;;;3.72;1.50;;;18.60;69.80;;;;;;6207269;23;20236;-85
2022/11/15 00:56:17;;;;;;;3.55;1.08;;;18.60;70.00;;;;;;6206334;23;20199;-85
2022/11/15 00:59:09;;;;;;;4.13;1.35;;;18.60;69.80;;;;;;6231778;23;20141;-84
2022/11/15 01:01:41;;;;;;;2.25;1.10;;;18.60;70.00;;;;;;6233469;23;20165;-85
2022/11/15 01:04:14;;;;;;;3.70;1.20;;;18.60;70.10;;;;;;6106365;23;20163;-84
2022/11/15 01:06:49;;;;;;;1.77;1.08;;;18.50;70.10;;;;;;6228235;23;20207;-84
2022/11/15 01:09:15;;;;;;;2.30;1.08;;;18.50;70.10;;;;;;6068387;23;20162;-85
2022/11/15 01:11:52;;;;;;;2.90;1.20;;;18.50;70.00;;;;;;6115030;23;20510;-85
2022/11/15 01:14:18;;;;;;;4.05;1.10;;;18.50;69.80;;;;;;6089335;23;20233;-84
2022/11/15 01:16:56;;;;;;;2.25;1.02;;;18.50;70.00;;;;;;6113886;23;20144;-84
2022/11/15 01:19:27;;;;;;;4.35;1.00;;;18.50;70.90;;;;;;6091818;23;20155;-84
2022/11/15 01:22:06;;;;;;;3.67;1.73;;;18.50;69.90;;;;;;6191138;23;20156;-85
2022/11/15 01:24:41;;;;;;;2.35;1.33;;;18.50;69.90;;;;;;6069604;23;20159;-85
2022/11/15 01:27:11;;;;;;;3.22;1.23;;;18.50;70.00;;;;;;6090702;23;20174;-84
2022/11/15 01:29:42;;;;;;;3.07;1.30;;;18.50;70.00;;;;;;6201143;22;20202;-85
2022/11/15 01:32:11;;;;;;;1.63;0.82;;;18.50;70.10;;;;;;6258477;23;20153;-85
2022/11/15 01:34:44;;;;;;;3.13;1.10;;;18.50;69.90;;;;;;6233698;23;20150;-85
2022/11/15 01:37:13;;;;;;;3.58;1.13;;;18.50;69.80;;;;;;6234429;23;20232;-84
2022/11/15 01:39:47;;;;;;;2.95;1.20;;;18.50;69.70;;;;;;6286443;22;20149;-84
2022/11/15 01:42:20;;;;;;;1.95;1.17;;;18.50;69.80;;;;;;6260819;23;20141;-85
2022/11/15 01:44:54;;;;;;;4.38;1.20;;;18.50;69.90;;;;;;6235601;23;20161;-84
2022/11/15 01:47:33;;;;;;;1.90;1.05;;;18.50;69.80;;;;;;6258865;23;20149;-85
2022/11/15 01:50:08;;;;;;;2.28;1.15;;;18.50;69.70;;;;;;6196122;23;20198;-84
2022/11/15 01:52:42;;;;;;;2.33;1.02;;;18.50;70.00;;;;;;6171534;23;20271;-84
2022/11/15 01:55:19;;;;;;;6.20;1.42;;;18.50;70.00;;;;;;6171788;23;20162;-84
2022/11/15 01:58:09;;;;;;;3.28;1.17;;;18.50;69.90;;;;;;6261643;22;20185;-84
2022/11/15 02:00:40;;;;;;;3.25;1.08;;;18.50;70.00;;;;;;6237874;22;20157;-84
2022/11/15 02:03:16;;;;;;;1.95;1.00;;;18.50;70.10;;;;;;6211389;22;20155;-85
2022/11/15 02:05:45;;;;;;;4.43;1.65;;;18.50;69.80;;;;;;6211630;22;20152;-85
2022/11/15 02:08:26;;;;;;;2.80;1.17;;;18.50;70.00;;;;;;6212458;22;20294;-84
2022/11/15 02:11:07;;;;;;;2.70;1.10;;;18.50;70.20;;;;;;6236604;22;20179;-85
2022/11/15 02:13:38;;;;;;;2.50;0.90;;;18.40;69.90;;;;;;6230173;22;20190;-85
2022/11/15 02:16:40;;;;;;;2.25;0.93;;;18.40;70.30;;;;;;6196616;22;20205;-85
2022/11/15 02:19:40;;;;;;;3.55;1.20;;;18.50;70.30;;;;;;6195767;22;20230;-85
2022/11/15 02:22:15;;;;;;;2.60;1.27;;;18.50;70.10;;;;;;6296730;22;20234;-85
2022/11/15 02:25:21;;;;;;;3.38;1.02;;;18.50;69.90;;;;;;6297105;22;20139;-85
2022/11/15 02:28:09;;;;;;;2.72;1.13;;;18.50;70.00;;;;;;6299108;22;20147;-84
2022/11/15 02:30:42;;;;;;;2.35;1.02;;;18.40;69.90;;;;;;6295464;22;20277;-84
2022/11/15 02:34:00;;;;;;;3.17;1.05;;;18.50;70.10;;;;;;6298915;22;20159;-84
2022/11/15 02:36:40;;;;;;;1.50;0.95;;;18.50;70.20;;;;;;6297820;22;20139;-85
2022/11/15 02:39:22;;;;;;;3.70;1.20;;;18.50;70.00;;;;;;6273410;22;20143;-84
2022/11/15 02:44:49;;;;;;;1.92;0.95;;;18.50;70.20;;;;;;6257659;22;20195;-85
2022/11/15 02:47:22;;;;;;;3.70;1.10;;;18.50;69.80;;;;;;6246956;22;20603;-85
2022/11/15 02:49:57;;;;;;;2.40;0.75;;;18.50;69.80;;;;;;6221196;22;20154;-85
2022/11/15 02:52:29;;;;;;;3.40;1.30;;;18.50;70.10;;;;;;6221539;22;20146;-84
2022/11/15 02:55:02;;;;;;;1.48;0.90;;;18.50;70.20;;;;;;6221703;22;20493;-84
2022/11/15 02:57:52;;;;;;;2.10;0.80;;;18.50;70.50;;;;;;6223149;22;20151;-85
2022/11/15 03:00:27;;;;;;;4.00;0.98;;;18.40;70.10;;;;;;6272908;22;20155;-84
2022/11/15 03:03:12;;;;;;;3.45;1.27;;;18.50;70.20;;;;;;6246361;22;20154;-85
2022/11/15 03:05:51;;;;;;;3.47;1.15;;;18.40;70.40;;;;;;6228944;22;20162;-85
2022/11/15 03:08:30;;;;;;;1.63;0.93;;;18.40;70.10;;;;;;6244903;22;20155;-84
2022/11/15 03:11:12;;;;;;;2.50;0.95;;;18.40;70.50;;;;;;6247278;22;20206;-84
2022/11/15 03:14:05;;;;;;;2.30;0.95;;;18.40;70.30;;;;;;6146102;23;20150;-85
2022/11/15 03:16:58;;;;;;;1.23;1.00;;;18.40;70.10;;;;;;6171947;23;20515;-85
2022/11/15 03:19:45;;;;;;;2.58;1.33;;;18.40;70.20;;;;;;6151193;23;20165;-85
2022/11/15 03:22:24;;;;;;;3.33;0.88;;;18.40;70.10;;;;;;6148324;23;20222;-85
2022/11/15 03:24:57;;;;;;;2.20;1.20;;;18.50;70.30;;;;;;6172918;23;20150;-85
2022/11/15 03:27:33;;;;;;;3.03;1.02;;;18.40;70.00;;;;;;6146443;23;20234;-85
2022/11/15 03:30:03;;;;;;;5.30;1.05;;;18.40;70.10;;;;;;6112343;23;20183;-84
2022/11/15 03:32:49;;;;;;;2.13;0.90;;;18.40;70.00;;;;;;6135471;23;20152;-84
2022/11/15 03:35:49;;;;;;;2.88;0.95;;;18.40;70.00;;;;;;6140032;23;20167;-84
2022/11/15 03:38:27;;;;;;;4.63;1.00;;;18.50;70.20;;;;;;6077988;23;20149;-84
2022/11/15 03:41:23;;;;;;;3.65;0.90;;;18.40;70.20;;;;;;6055148;23;20161;-85
2022/11/15 03:43:59;;;;;;;1.95;0.82;;;18.40;70.10;;;;;;6025479;23;20181;-87
2022/11/15 03:46:36;;;;;;;3.63;1.35;;;18.40;70.10;;;;;;6025715;23;20180;-84
2022/11/15 03:49:13;;;;;;;3.22;1.20;;;18.40;70.30;;;;;;6073383;23;20157;-84
2022/11/15 03:51:53;;;;;;;3.75;1.23;;;18.50;70.20;;;;;;6036939;23;20749;-85
2022/11/15 03:54:36;;;;;;;2.53;0.93;;;18.40;70.30;;;;;;6084766;23;20156;-84
2022/11/15 03:57:09;;;;;;;2.30;0.95;;;18.40;70.50;;;;;;6108240;23;20501;-84
2022/11/15 03:59:48;;;;;;;2.40;1.10;;;18.40;70.40;;;;;;6158975;23;20179;-84
2022/11/15 04:02:19;;;;;;;1.40;1.00;;;18.40;70.40;;;;;;6009907;23;20153;-85
2022/11/15 04:05:02;;;;;;;1.85;1.00;;;18.40;70.30;;;;;;6090059;23;20199;-85
2022/11/15 04:07:39;;;;;;;1.42;0.90;;;18.30;70.30;;;;;;6184803;23;20148;-85
2022/11/15 04:10:12;;;;;;;2.63;0.98;;;18.30;70.10;;;;;;6027804;23;20184;-84
2022/11/15 04:12:43;;;;;;;3.17;1.20;;;18.40;70.40;;;;;;6050677;23;20153;-84
2022/11/15 04:15:21;;;;;;;3.10;1.00;;;18.40;70.40;;;;;;6140891;23;20219;-86
2022/11/15 04:17:56;;;;;;;4.10;1.27;;;18.40;70.50;;;;;;6108814;23;20158;-84
2022/11/15 04:25:56;;;;;;;1.92;1.02;;;18.40;70.40;;;;;;6161025;23;20173;-84
2022/11/15 04:28:26;;;;;;;2.13;0.90;;;18.40;70.50;;;;;;6076651;23;20176;-85
2022/11/15 04:30:52;;;;;;;2.63;1.02;;;18.40;70.30;;;;;;6166683;23;20215;-85
2022/11/15 04:33:50;;;;;;;2.20;1.00;;;18.40;70.40;;;;;;6129723;23;20153;-85
2022/11/15 04:39:26;;;;;;;2.42;1.30;;;18.40;70.80;;;;;;6100529;23;20150;-86
2022/11/15 04:42:14;;;;;;;2.75;1.25;;;18.30;70.60;;;;;;6155562;23;20171;-85
2022/11/15 04:44:48;;;;;;;3.55;0.82;;;18.30;70.60;;;;;;6183391;23;20159;-84
2022/11/15 04:47:18;;;;;;;1.75;0.93;;;18.40;70.90;;;;;;6182976;23;20156;-85
2022/11/15 04:49:49;;;;;;;1.98;1.08;;;18.30;70.80;;;;;;6240869;22;20151;-85
2022/11/15 04:52:21;;;;;;;3.78;1.30;;;18.30;70.90;;;;;;6222723;22;20147;-85
2022/11/15 04:54:50;;;;;;;1.52;0.90;;;18.30;70.80;;;;;;6248693;22;20150;-84
2022/11/15 04:57:20;;;;;;;2.75;1.00;;;18.30;70.90;;;;;;6273765;22;20147;-85
2022/11/15 04:59:54;;;;;;;2.78;1.20;;;18.30;70.70;;;;;;6247567;22;20222;-85
2022/11/15 05:02:20;;;;;;;1.83;0.93;;;18.30;70.70;;;;;;6248732;22;20151;-84
2022/11/15 05:04:54;;;;;;;3.70;1.00;;;18.30;70.80;;;;;;6274793;22;20196;-84
2022/11/15 05:07:31;;;;;;;2.53;1.33;;;18.30;70.80;;;;;;6221838;22;20151;-85
2022/11/15 05:10:03;;;;;;;2.67;1.10;;;18.30;70.80;;;;;;6210155;22;20154;-85
2022/11/15 05:12:29;;;;;;;2.00;0.90;;;18.30;70.40;;;;;;6180092;23;20189;-85
2022/11/15 05:14:58;;;;;;;2.72;1.10;;;18.30;71.10;;;;;;6079277;23;20276;-85
2022/11/15 05:17:39;;;;;;;2.22;1.00;;;18.30;70.80;;;;;;6079467;23;20645;-87
2022/11/15 05:20:09;;;;;;;2.17;1.00;;;18.30;70.60;;;;;;6079906;23;20155;-84
2022/11/15 05:22:45;;;;;;;2.38;1.00;;;18.30;70.90;;;;;;6078995;23;20157;-85
2022/11/15 05:25:23;;;;;;;2.38;1.10;;;18.30;70.80;;;;;;6055955;23;20273;-84
2022/11/15 05:27:52;;;;;;;2.35;1.23;;;18.30;70.80;;;;;;6079719;23;20173;-85
2022/11/15 05:30:18;;;;;;;5.07;1.13;;;18.30;70.70;;;;;;6079552;23;20565;-85
2022/11/15 05:32:50;;;;;;;1.83;0.90;;;18.30;70.60;;;;;;6079862;23;20160;-85
2022/11/15 05:35:25;;;;;;;3.15;1.33;;;18.30;70.70;;;;;;6032755;23;20163;-84
2022/11/15 05:38:00;;;;;;;2.45;0.82;;;18.30;70.80;;;;;;6103845;23;20153;-84
2022/11/15 05:40:27;;;;;;;1.30;0.90;;;18.30;70.50;;;;;;6055287;23;20156;-84
2022/11/15 05:42:53;;;;;;;4.30;1.30;;;18.30;70.90;;;;;;6116191;23;20158;-85
2022/11/15 05:45:38;;;;;;;1.75;0.90;;;18.30;70.90;;;;;;6137917;22;20159;-85
2022/11/15 05:48:06;;;;;;;4.45;0.93;;;18.30;71.10;;;;;;6205221;23;20158;-85
2022/11/15 05:50:35;;;;;;;1.38;0.98;;;18.30;71.20;;;;;;6143076;23;20208;-84
2022/11/15 05:53:08;;;;;;;2.47;0.90;;;18.30;70.70;;;;;;6136937;23;20150;-84
2022/11/15 05:55:34;;;;;;;2.78;0.93;;;18.30;70.90;;;;;;6189394;23;20254;-84
2022/11/15 05:58:17;;;;;;;2.35;1.10;;;18.30;71.00;;;;;;6137574;23;20203;-84
2022/11/15 06:00:49;;;;;;;2.13;0.88;;;18.30;70.50;;;;;;6112794;23;20473;-85
2022/11/15 06:03:15;;;;;;;1.98;0.88;;;18.20;70.30;;;;;;6113609;23;20274;-84
2022/11/15 06:05:47;;;;;;;1.55;0.95;;;18.30;70.20;;;;;;6161612;23;20167;-85
2022/11/15 06:08:37;;;;;;;1.40;1.10;;;18.30;70.70;;;;;;6136428;23;20642;-84
2022/11/15 06:11:08;;;;;;;3.10;1.10;;;18.30;70.90;;;;;;6160650;23;20164;-85
2022/11/15 06:13:38;;;;;;;2.42;1.10;;;18.30;70.70;;;;;;6088206;23;20152;-85
2022/11/15 06:16:16;;;;;;;2.20;1.00;;;18.30;70.10;;;;;;6087798;23;20178;-84
2022/11/15 06:18:49;;;;;;;4.20;1.00;;;18.30;70.00;;;;;;6087760;23;20158;-85
2022/11/15 06:21:18;;;;;;;1.77;1.00;;;18.30;70.20;;;;;;6088673;23;20174;-84
2022/11/15 06:23:50;;;;;;;3.38;0.88;;;18.40;69.50;;;;;;6142289;23;20601;-85
2022/11/15 06:26:16;;;;;;;3.53;1.23;;;18.40;69.50;;;;;;6118130;23;20602;-85
2022/11/15 06:28:49;;;;;;;3.92;1.20;;;18.40;69.60;;;;;;6143603;23;20142;-84
2022/11/15 06:31:27;;;;;;;1.10;0.88;;;18.40;69.20;;;;;;6184629;23;20420;-85
2022/11/15 06:33:59;;;;;;;2.05;1.13;;;18.50;69.40;;;;;;6083581;23;20148;-84
2022/11/15 06:36:39;;;;;;;1.92;1.00;;;18.50;68.90;;;;;;6156050;23;20258;-84
2022/11/15 06:39:24;;;;;;;2.47;0.73;;;18.50;68.80;;;;;;6110818;23;20156;-85
2022/11/15 06:41:57;;;;;;;0.70;0.70;;;18.50;68.70;;;;;;6157123;23;20152;-84
2022/11/15 06:44:27;;;;;;;1.08;0.80;;;18.50;68.80;;;;;;6154655;23;20251;-85
2022/11/15 06:46:59;;;;;;;2.45;0.95;;;18.50;68.50;;;;;;6079882;23;20191;-85
2022/11/15 06:49:24;;;;;;;2.42;0.80;;;18.50;69.20;;;;;;6078838;23;20159;-85
2022/11/15 06:51:50;;;;;;;2.28;0.80;;;18.40;68.50;;;;;;6078439;23;20191;-85
2022/11/15 06:54:16;;;;;;;2.72;0.90;;;18.60;69.00;;;;;;6079478;23;20510;-85
2022/11/15 06:56:48;;;;;;;3.20;0.77;;;18.50;68.80;;;;;;6104251;23;20164;-84
2022/11/15 06:59:20;;;;;;;1.10;0.73;;;18.50;68.60;;;;;;6105244;23;20177;-85
2022/11/15 07:01:52;;;;;;;1.95;0.82;;;18.50;68.30;;;;;;6167312;23;20155;-84
2022/11/15 07:04:22;;;;;;;3.03;1.00;;;18.50;68.70;;;;;;6085664;23;20152;-84
2022/11/15 07:06:48;;;;;;;1.88;0.88;;;18.60;68.70;;;;;;6082624;23;20148;-85
2022/11/15 07:09:25;;;;;;;1.55;0.90;;;18.50;68.30;;;;;;6108944;23;20152;-85
2022/11/15 07:11:55;;;;;;;1.75;0.82;;;18.50;68.30;;;;;;6065171;23;20182;-85
2022/11/15 07:14:28;;;;;;;3.55;0.85;;;18.50;68.30;;;;;;6108047;23;20155;-85
2022/11/15 07:16:54;;;;;;;1.17;0.85;;;18.60;68.50;;;;;;6108484;23;20152;-85
2022/11/15 07:19:27;;;;;;;2.88;1.00;;;18.50;68.80;;;;;;6133458;23;20151;-85
2022/11/15 07:21:55;;;;;;;1.30;0.85;;;18.50;68.50;;;;;;6084164;23;20250;-85
2022/11/15 07:24:21;;;;;;;1.27;0.77;;;18.50;68.40;;;;;;6110008;23;20147;-84
2022/11/15 07:26:52;;;;;;;1.50;0.98;;;18.50;68.40;;;;;;6109979;23;20465;-84
2022/11/15 07:29:18;;;;;;;1.42;0.85;;;18.50;68.10;;;;;;6085463;23;20155;-85
2022/11/15 07:31:44;;;;;;;1.00;0.90;;;18.50;68.30;;;;;;6220762;22;20191;-84
2022/11/15 07:34:11;;;;;;;1.50;0.93;;;18.50;68.60;;;;;;6283526;22;20512;-85
2022/11/15 07:36:37;;;;;;;1.77;0.90;;;18.60;67.90;;;;;;6311040;22;20209;-85
2022/11/15 07:39:11;;;;;;;1.67;1.02;;;18.50;68.50;;;;;;6311522;22;20258;-84
2022/11/15 07:41:38;;;;;;;1.65;0.80;;;18.50;68.40;;;;;;6281930;22;20490;-85
2022/11/15 07:44:04;;;;;;;2.50;0.70;;;18.50;68.40;;;;;;6281836;22;20151;-84
2022/11/15 07:46:31;;;;;;;1.45;0.80;;;18.50;68.50;;;;;;6283401;22;20512;-84
2022/11/15 07:48:57;;;;;;;1.05;0.77;;;18.50;68.40;;;;;;6283129;22;20180;-84
2022/11/15 07:51:26;;;;;;;1.50;0.80;;;18.60;68.90;;;;;;6314272;22;20167;-85
2022/11/15 07:53:57;;;;;;;0.95;0.80;;;18.50;68.30;;;;;;6314803;22;20124;-85
2022/11/15 07:56:29;;;;;;;1.95;0.90;;;18.60;68.00;;;;;;6238901;22;20144;-85
2022/11/15 07:59:00;;;;;;;2.20;0.90;;;18.50;68.30;;;;;;6290255;22;20412;-85
2022/11/15 08:01:34;;;;;;;2.70;1.00;;;18.60;68.20;;;;;;6238339;22;20592;-84
2022/11/15 08:04:08;;;;;;;1.63;1.00;;;18.50;68.30;;;;;;6237959;22;20587;-85
2022/11/15 08:06:35;;;;;;;1.70;0.80;;;18.60;68.40;;;;;;6213349;22;20179;-85
2022/11/15 08:09:08;;;;;;;1.65;0.98;;;18.50;67.90;;;;;;6237207;22;20203;-84
2022/11/15 08:11:38;;;;;;;1.75;1.00;;;18.60;68.10;;;;;;6210248;22;20188;-85
2022/11/15 08:14:07;;;;;;;2.13;0.80;;;18.60;68.00;;;;;;6238788;22;20278;-86
2022/11/15 08:16:37;;;;;;;0.90;0.60;;;18.60;68.00;;;;;;6210742;22;20654;-84
2022/11/15 08:19:03;;;;;;;2.42;0.90;;;18.60;68.20;;;;;;6212939;22;20214;-85
2022/11/15 08:21:30;;;;;;;2.28;1.10;;;18.60;68.10;;;;;;6289948;22;20156;-85
2022/11/15 08:23:57;;;;;;;2.67;0.70;;;18.60;68.20;;;;;;6214751;22;20166;-85
2022/11/15 08:26:24;;;;;;;2.22;1.02;;;18.60;68.40;;;;;;6214713;22;20159;-85
2022/11/15 08:29:07;;;;;;;2.30;0.90;;;18.60;68.10;;;;;;6289194;22;20174;-86
2022/11/15 08:31:33;;;;;;;2.08;1.08;;;18.60;68.10;;;;;;6213273;22;20196;-85
2022/11/15 08:34:03;;;;;;;2.50;0.80;;;18.60;68.30;;;;;;6265186;22;20151;-85
2022/11/15 08:36:29;;;;;;;2.67;0.90;;;18.60;68.20;;;;;;6216614;22;20159;-86
2022/11/15 08:39:00;;;;;;;1.67;1.10;;;18.60;67.80;;;;;;6294094;22;20156;-86
2022/11/15 08:41:41;;;;;;;1.83;0.82;;;18.60;68.10;;;;;;6292459;22;20144;-86
2022/11/15 08:44:16;;;;;;;1.50;1.00;;;18.60;67.70;;;;;;6204380;23;20146;-86
2022/11/15 08:46:42;;;;;;;1.67;1.00;;;18.60;68.10;;;;;;6180891;23;20219;-86
2022/11/15 08:49:09;;;;;;;5.25;1.40;;;18.60;67.30;;;;;;6222689;23;20565;-87
2022/11/15 08:51:39;;;;;;;10.02;1.40;;;18.70;68.00;;;;;;6190451;23;20607;-86
2022/11/15 08:54:10;;;;;;;3.22;0.90;;;18.70;67.80;;;;;;6165809;23;20614;-86
2022/11/15 08:56:53;;;;;;;5.53;1.10;;;18.60;67.20;;;;;;6142685;23;20581;-86
2022/11/15 08:59:24;;;;;;;3.20;1.20;;;18.60;67.80;;;;;;6192690;23;20154;-85
2022/11/15 09:01:50;;;;;;;6.97;1.15;;;18.60;67.70;;;;;;6215605;23;20150;-84
2022/11/15 09:04:17;;;;;;;4.78;1.20;;;18.70;67.90;;;;;;6194007;23;20158;-84
2022/11/15 09:06:46;;;;;;;2.83;1.00;;;18.70;67.50;;;;;;6195880;23;20248;-84
2022/11/15 09:09:18;;;;;;;5.13;1.30;;;18.70;68.30;;;;;;6144735;23;20154;-85
2022/11/15 09:11:46;;;;;;;2.65;0.90;;;18.60;68.00;;;;;;6175527;23;20188;-85
2022/11/15 09:14:17;;;;;;;4.78;1.20;;;18.70;68.00;;;;;;6209324;22;20465;-84
2022/11/15 09:16:45;;;;;;;2.83;1.08;;;18.70;67.60;;;;;;6208569;22;20227;-84
2022/11/15 09:19:14;;;;;;;4.15;1.00;;;18.70;67.40;;;;;;6258173;22;20181;-84
2022/11/15 09:21:40;;;;;;;4.57;1.00;;;18.70;67.00;;;;;;6258795;22;20152;-83
2022/11/15 09:24:11;;;;;;;2.65;1.25;;;18.70;66.90;;;;;;6284171;22;20151;-83
2022/11/15 09:26:36;;;;;;;4.68;1.10;;;18.70;66.90;;;;;;6283138;22;20156;-84
2022/11/15 09:29:02;;;;;;;3.33;0.95;;;18.80;67.40;;;;;;6257732;22;20520;-85
2022/11/15 09:31:29;;;;;;;5.15;1.08;;;18.70;67.20;;;;;;6257309;22;20187;-84
2022/11/15 09:33:55;;;;;;;1.27;0.85;;;18.70;67.00;;;;;;6283584;22;20159;-86
2022/11/15 09:36:23;;;;;;;2.60;1.10;;;18.80;67.00;;;;;;6283800;22;20224;-84
2022/11/15 09:38:57;;;;;;;3.50;1.10;;;18.80;67.00;;;;;;6283966;22;20155;-84
2022/11/15 09:41:40;;;;;;;4.90;1.08;;;18.70;67.40;;;;;;6309711;22;20586;-85
2022/11/15 09:44:37;;;;;;;6.32;1.20;;;18.80;67.20;;;;;;6222511;23;20251;-85
2022/11/15 09:47:42;;;;;;;3.22;0.98;;;18.80;67.40;;;;;;6120414;23;20202;-86
2022/11/15 09:50:36;;;;;;;2.85;1.10;;;18.70;66.90;;;;;;6247682;23;20637;-85
2022/11/15 09:53:02;;;;;;;5.47;0.95;;;18.80;66.90;;;;;;6098224;23;20628;-85
2022/11/15 09:55:37;;;;;;;4.28;0.90;;;18.80;67.10;;;;;;6119131;23;20241;-85
2022/11/15 09:58:21;;;;;;;2.88;0.88;;;18.80;66.80;;;;;;6054320;23;20159;-85
2022/11/15 10:00:48;;;;;;;3.92;1.08;;;18.70;66.30;;;;;;6169681;23;20232;-84
2022/11/15 10:03:23;;;;;;;3.47;1.00;;;18.80;66.70;;;;;;6197313;23;20149;-85
2022/11/15 10:06:04;;;;;;;6.22;1.00;;;18.80;66.50;;;;;;6223289;23;20560;-85
2022/11/15 10:08:53;;;;;;;3.08;0.90;;;18.80;67.00;;;;;;6186199;23;20154;-85
2022/11/15 10:11:32;;;;;;;2.30;0.80;;;18.80;66.80;;;;;;6127835;23;20543;-84
2022/11/15 10:14:14;;;;;;;4.20;1.00;;;18.80;66.40;;;;;;6081055;23;20152;-84
2022/11/15 10:17:03;;;;;;;2.15;0.80;;;18.80;67.00;;;;;;6137698;23;20301;-83
2022/11/15 10:20:05;;;;;;;3.42;0.90;;;18.80;66.90;;;;;;6166655;23;20142;-84
2022/11/15 10:22:40;;;;;;;3.80;0.98;;;18.80;66.60;;;;;;6187974;23;20177;-84
2022/11/15 10:25:14;;;;;;;3.70;1.20;;;18.80;66.10;;;;;;6138420;23;20161;-85
2022/11/15 10:28:02;;;;;;;1.52;0.90;;;18.80;66.40;;;;;;6163135;23;20652;-84
2022/11/15 10:30:37;;;;;;;4.35;1.00;;;18.80;66.60;;;;;;6073161;23;20243;-84
2022/11/15 10:33:25;;;;;;;2.72;0.93;;;18.80;66.60;;;;;;6138327;23;20169;-84
2022/11/15 10:36:28;;;;;;;1.85;1.00;;;18.80;66.60;;;;;;6162542;23;20230;-84
2022/11/15 10:38:58;;;;;;;2.72;1.00;;;18.80;65.80;;;;;;6188709;22;20540;-84
2022/11/15 10:41:39;;;;;;;2.05;1.00;;;18.80;66.70;;;;;;6180798;22;20153;-84
2022/11/15 10:44:35;;;;;;;;;;;;;;;;;;;;;
2022/11/15 10:47:30;;;;;;;1.90;1.13;;;18.80;66.30;;;;;;6155011;23;20154;-85
2022/11/15 10:50:38;;;;;;;2.03;0.93;;;18.80;66.20;;;;;;6053284;23;20169;-85
2022/11/15 10:53:46;;;;;;;;;;;;;;;;;;;;;
2022/11/15 10:57:17;;;;;;;4.78;1.10;;;18.80;66.00;;;;;;6134391;23;20157;-85
2022/11/15 10:59:29;;;;;;;2.33;1.00;;;18.90;66.10;;;;;;6103049;23;20154;-85
2022/11/15 11:02:01;;;;;;;2.28;0.90;;;18.80;65.50;;;;;;6022124;23;20157;-85
2022/11/15 11:04:48;;;;;;;1.83;0.82;;;18.80;65.40;;;;;;6046163;23;20196;-85
2022/11/15 11:07:27;;;;;;;6.20;1.60;;;18.80;65.00;;;;;;6023606;23;20154;-86
2022/11/15 11:10:23;;;;;;;3.60;1.00;;;18.80;66.10;;;;;;5983998;24;20191;-84
2022/11/15 11:12:56;;;;;;;2.78;1.02;;;18.80;65.30;;;;;;5961371;23;20239;-85
2022/11/15 11:15:26;;;;;;;2.50;1.02;;;18.80;65.80;;;;;;5961312;23;20152;-86
2022/11/15 11:17:58;;;;;;;3.78;1.17;;;18.80;65.00;;;;;;6152008;23;20191;-85
2022/11/15 11:20:38;;;;;;;2.55;1.08;;;18.80;65.00;;;;;;6141181;23;20155;-85
2022/11/15 11:23:35;;;;;;;1.75;0.90;;;18.80;65.10;;;;;;6166519;23;20638;-84
2022/11/15 11:26:36;;;;;;;4.18;1.00;;;18.80;64.70;;;;;;6144607;23;20167;-84
2022/11/15 11:29:18;;;;;;;3.17;0.93;;;18.80;64.90;;;;;;6077988;23;20507;-84
2022/11/15 11:32:23;;;;;;;3.55;1.00;;;18.80;65.30;;;;;;6105850;23;20196;-84
2022/11/15 11:35:12;;;;;;;3.17;1.05;;;18.90;64.90;;;;;;6130953;23;20156;-85
2022/11/15 11:37:58;;;;;;;3.47;1.00;;;18.90;65.10;;;;;;6131039;23;20141;-85
2022/11/15 11:41:37;;;;;;;2.30;1.00;;;18.80;64.70;;;;;;6131766;23;20150;-85
2022/11/15 11:47:19;;;;;;;2.15;0.88;;;18.90;65.40;;;;;;6033995;23;20166;-87
2022/11/15 11:51:14;;;;;;;2.83;1.00;;;18.80;64.70;;;;;;5997377;23;20158;-85
2022/11/15 11:54:01;;;;;;;3.03;1.05;;;18.80;65.60;;;;;;5978078;23;20247;-86
2022/11/15 11:56:44;;;;;;;2.38;0.90;;;18.80;65.20;;;;;;5951730;24;20159;-85
2022/11/15 11:59:47;;;;;;;1.95;1.30;;;18.90;65.50;;;;;;5992328;23;20159;-84
2022/11/15 12:02:56;;;;;;;0.88;0.80;;;18.80;65.40;;;;;;5987270;24;20155;-86
2022/11/15 12:05:37;;;;;;;3.72;0.90;;;18.80;65.20;;;;;;5955836;24;20180;-86
2022/11/15 12:09:11;;;;;;;;;;;;;;;;;;;;;
2022/11/15 12:13:25;;;;;;;;;;;;;;;;;;;;;
2022/11/15 12:19:16;;;;;;;;;;;;;;;;;;;;;
2022/11/15 12:22:34;;;;;;;3.08;0.90;;;18.80;64.70;;;;;;5937102;24;20164;-86
2022/11/15 12:25:08;;;;;;;2.50;1.15;;;18.90;64.20;;;;;;6104206;23;20153;-85
2022/11/15 12:28:06;;;;;;;1.50;0.85;;;18.80;64.90;;;;;;6014322;23;20157;-85
2022/11/15 12:31:03;;;;;;;4.22;1.00;;;18.80;64.40;;;;;;6140767;23;20180;-85
2022/11/15 12:34:03;;;;;;;;;;;;;;;;;;;;;
2022/11/15 12:36:38;;;;;;;3.72;1.35;;;18.80;65.00;;;;;;5988846;23;20190;-86
2022/11/15 12:39:09;;;;;;;1.67;1.00;;;18.80;65.20;;;;;;6088612;23;20152;-87
2022/11/15 12:42:02;;;;;;;2.20;1.00;;;18.80;64.50;;;;;;6030151;23;20156;-85
2022/11/15 12:45:25;;;;;;;;;;;;;;;;;;;;;
2022/11/15 12:55:31;;;;;;;2.53;1.02;;;18.80;65.20;;;;;;6049362;23;20233;-84
2022/11/15 13:02:55;;;;;;;;;;;;;;;;;;;;;
2022/11/15 13:05:56;;;;;;;2.78;1.27;;;18.90;64.40;;;;;;6053065;23;20205;-85
2022/11/15 13:13:09;;;;;;;1.23;0.93;;;18.80;63.90;;;;;;5910993;24;20169;-85
2022/11/15 13:15:59;;;;;;;2.53;1.02;;;18.90;63.80;;;;;;5878256;24;20165;-85
2022/11/15 13:19:23;;;;;;;1.77;0.98;;;18.90;63.90;;;;;;5939908;23;20176;-85
2022/11/15 13:25:33;;;;;;;1.38;1.00;;;18.90;64.10;;;;;;5797910;24;20465;-85
2022/11/15 13:28:41;;;;;;;1.50;1.08;;;18.80;63.80;;;;;;5792720;24;20164;-86
2022/11/15 13:31:39;;;;;;;3.78;1.10;;;18.90;64.20;;;;;;5858488;23;20218;-86
2022/11/15 13:38:38;;;;;;;1.98;0.90;;;18.80;63.90;;;;;;5940296;24;20295;-86
2022/11/15 13:41:48;;;;;;;;;;;;;;;;;;;;;
2022/11/15 13:48:21;;;;;;;1.00;0.77;;;18.90;63.60;;;;;;5965824;23;20142;-86
2022/11/15 13:50:53;;;;;;;1.58;0.90;;;18.90;63.60;;;;;;5966052;23;20191;-84
2022/11/15 13:53:19;;;;;;;1.38;0.90;;;18.90;63.30;;;;;;5961603;24;20155;-85
2022/11/15 13:55:46;;;;;;;2.78;0.98;;;18.90;62.90;;;;;;5984513;23;20730;-84
2022/11/15 14:40:20;;;;;;;1.20;0.80;;;18.80;63.70;;;;;;6033887;23;20291;-85
2022/11/15 14:43:31;;;;;;;2.05;1.15;;;18.80;63.20;;;;;;6022025;23;20174;-83
2022/11/15 14:46:34;;;;;;;1.25;0.90;;;18.80;63.50;;;;;;5933618;24;20691;-83
2022/11/15 14:49:43;;;;;;;2.05;0.93;;;18.80;63.60;;;;;;5864916;24;20154;-85
2022/11/15 15:16:26;;;;;;;1.77;0.93;;;18.90;62.80;;;;;;5944404;24;20222;-86
2022/11/15 15:19:12;;;;;;;1.30;0.90;;;18.90;62.30;;;;;;5942650;24;20180;-85
2022/11/15 15:28:55;;;;;;;;;;;;;;;;;;;;;
2022/11/15 15:32:34;;;;;;;5.20;1.50;;;18.90;62.90;;;;;;5998461;23;20182;-84
2022/11/15 15:35:12;;;;;;;3.05;1.02;;;18.90;63.00;;;;;;6081063;23;20192;-84
2022/11/15 15:38:19;;;;;;;5.72;1.52;;;18.90;62.40;;;;;;6079856;23;20165;-84
2022/11/15 15:41:53;;;;;;;4.80;1.08;;;18.90;62.50;;;;;;6022129;23;20287;-84
2022/11/15 15:45:09;;;;;;;2.20;0.98;;;18.90;62.10;;;;;;6054306;23;20162;-84
2022/11/15 15:48:40;;;;;;;;;;;;;;;;;;;;;
2022/11/15 15:58:16;;;;;;;;;;;;;;;;;;;;;
2022/11/15 16:05:00;;;;;;;3.53;1.10;;;19.00;62.40;;;;;;6025468;23;20210;-85
2022/11/15 16:39:33;;;;;;;7.70;1.40;;;19.10;62.50;;;;;;6144471;23;20222;-85
2022/11/15 16:49:52;;;;;;;;;;;;;;;;;;;;;
2022/11/15 16:52:50;;;;;;;;;;;;;;;;;;;;;
2022/11/15 16:55:17;;;;;;;4.40;1.00;;;19.20;62.40;;;;;;6025592;23;20201;-84
2022/11/15 16:58:46;;;;;;;;;;;;;;;;;;;;;